Time;durP1;ratioP1;P1;durP2;ratioP2;P2;SDS_P1;SDS_P2;PMS_P1;PMS_P2;Temp;Humidity;BMP_temperature;BMP_pressure;BME280_temperature;BME280_humidity;BME280_pressure;Samples;Min_cycle;Max_cycle;Signal;HPM_P1;HPM_P2
2023/04/03 00:01:06;;;;;;;;;;;;;;;12.91;45.63;101856.63;4978870;27;126407;-63
2023/04/03 00:03:32;;;;;;;;;;;;;;;12.90;45.65;101860.41;4975917;27;124958;-63
2023/04/03 00:05:57;;;;;;;;;;;;;;;12.90;45.85;101862.28;4978889;27;99720;-67
2023/04/03 00:08:23;;;;;;;;;;;;;;;12.88;45.50;101862.50;4975359;27;125108;-64
2023/04/03 00:10:49;;;;;;;;;;;;;;;12.87;45.54;101860.88;4975359;27;110021;-67
2023/04/03 00:13:16;;;;;;;;;;;;;;;12.86;45.74;101870.09;4959641;27;126614;-67
2023/04/03 00:15:41;;;;;;;;;;;;;;;12.84;45.42;101861.38;4978144;27;97740;-63
2023/04/03 00:18:07;;;;;;;;;;;;;;;12.84;45.51;101872.19;4970641;27;127929;-63
2023/04/03 00:20:33;;;;;;;;;;;;;;;12.82;45.86;101877.06;4962863;27;123030;-66
2023/04/03 00:23:00;;;;;;;;;;;;;;;12.81;45.66;101875.44;4976490;27;127623;-66
2023/04/03 00:25:26;;;;;;;;;;;;;;;12.79;45.75;101874.84;4976592;27;98092;-67
2023/04/03 00:27:52;;;;;;;;;;;;;;;12.77;45.39;101880.50;4975951;27;126658;-66
2023/04/03 00:30:19;;;;;;;;;;;;;;;12.75;45.61;101877.22;4957624;28;128716;-63
2023/04/03 00:32:44;;;;;;;;;;;;;;;12.74;45.56;101878.28;4979554;27;99440;-63
2023/04/03 00:35:10;;;;;;;;;;;;;;;12.73;45.81;101881.22;4975971;27;117499;-63
2023/04/03 00:37:37;;;;;;;;;;;;;;;12.71;45.54;101883.38;4978138;27;106613;-63
2023/04/03 00:40:03;;;;;;;;;;;;;;;12.69;45.54;101880.94;4973969;27;98202;-67
2023/04/03 00:42:29;;;;;;;;;;;;;;;12.68;45.71;101884.69;4977019;27;98665;-63
2023/04/03 00:45:00;;;;;;;;;;;;;;;12.65;45.56;101877.06;4977862;27;98049;-66
2023/04/03 00:47:26;;;;;;;;;;;;;;;12.64;45.47;101883.53;4974771;27;99063;-66
2023/04/03 00:49:52;;;;;;;;;;;;;;;12.63;45.72;101889.22;4973705;27;124029;-66
2023/04/03 00:52:19;;;;;;;;;;;;;;;12.61;45.80;101886.72;4962564;28;110401;-63
2023/04/03 00:54:46;;;;;;;;;;;;;;;12.60;45.71;101876.16;4957946;27;98206;-67
2023/04/03 00:57:11;;;;;;;;;;;;;;;12.57;45.60;101884.78;4973530;27;127943;-66
2023/04/03 00:59:40;;;;;;;;;;;;;;;12.55;45.63;101881.50;4961336;27;127269;-63
2023/04/03 01:02:06;;;;;;;;;;;;;;;12.53;45.60;101890.66;4959714;28;99626;-63
2023/04/03 01:04:42;;;;;;;;;;;;;;;12.51;45.62;101889.28;4974556;27;116582;-67
2023/04/03 01:07:22;;;;;;;;;;;;;;;12.50;45.81;101890.34;4974769;27;123821;-67
2023/04/03 01:09:48;;;;;;;;;;;;;;;12.47;45.82;101891.66;4956934;27;98828;-66
2023/04/03 01:12:17;;;;;;;;;;;;;;;12.45;45.66;101892.97;4974861;28;100155;-63
2023/04/03 01:14:45;;;;;;;;;;;;;;;12.43;45.63;101890.50;4978209;27;98137;-66
2023/04/03 01:17:30;;;;;;;;;;;;;;;12.41;45.62;101891.81;4976274;27;98741;-66
2023/04/03 01:20:11;;;;;;;;;;;;;;;12.38;45.67;101890.44;4975241;27;98031;-63
2023/04/03 01:22:54;;;;;;;;;;;;;;;12.36;45.75;101884.44;4981050;27;98836;-66
2023/04/03 01:25:20;;;;;;;;;;;;;;;12.34;45.50;101892.00;4942770;28;98088;-66
2023/04/03 01:27:46;;;;;;;;;;;;;;;12.33;45.70;101892.22;4972786;27;127299;-67
2023/04/03 01:30:12;;;;;;;;;;;;;;;12.30;45.54;101893.53;4974823;27;126942;-66
2023/04/03 01:32:38;;;;;;;;;;;;;;;12.29;45.71;101900.81;4973342;27;116927;-66
2023/04/03 01:35:13;;;;;;;;;;;;;;;12.27;45.62;101908.34;4979100;27;97950;-66
2023/04/03 01:37:39;;;;;;;;;;;;;;;12.26;45.61;101908.59;4975276;27;129213;-63
2023/04/03 01:40:06;;;;;;;;;;;;;;;12.25;45.74;101920.47;4982456;27;99243;-63
2023/04/03 01:42:32;;;;;;;;;;;;;;;12.23;45.54;101925.31;4975733;27;97844;-63
2023/04/03 01:44:58;;;;;;;;;;;;;;;12.22;45.68;101920.94;4970985;27;117509;-63
2023/04/03 01:47:24;;;;;;;;;;;;;;;12.18;45.65;101919.78;4970444;27;127373;-63
2023/04/03 01:49:50;;;;;;;;;;;;;;;12.19;45.60;101929.56;4976748;27;98877;-67
2023/04/03 01:52:16;;;;;;;;;;;;;;;12.17;45.85;101926.28;4973991;27;127178;-63
2023/04/03 01:54:42;;;;;;;;;;;;;;;12.15;45.63;101931.94;4980548;27;117018;-64
2023/04/03 01:57:08;;;;;;;;;;;;;;;12.15;45.47;101925.72;4979803;27;127854;-63
2023/04/03 01:59:34;;;;;;;;;;;;;;;12.11;45.46;101928.06;4962377;27;98022;-66
2023/04/03 02:02:00;;;;;;;;;;;;;;;12.10;45.48;101931.81;4977293;27;98067;-67
2023/04/03 02:04:29;;;;;;;;;;;;;;;12.09;45.58;101932.88;4978578;27;118147;-66
2023/04/03 02:06:55;;;;;;;;;;;;;;;12.07;45.80;101935.03;4974309;27;128446;-66
2023/04/03 02:09:21;;;;;;;;;;;;;;;12.06;45.54;101937.97;4941007;27;126508;-63
2023/04/03 02:11:47;;;;;;;;;;;;;;;12.04;45.73;101939.03;4955525;27;99178;-62
2023/04/03 02:14:14;;;;;;;;;;;;;;;12.02;45.68;101934.91;4975710;27;97877;-63
2023/04/03 02:16:40;;;;;;;;;;;;;;;12.00;45.58;101935.16;4977200;27;99316;-63
2023/04/03 02:19:06;;;;;;;;;;;;;;;11.99;45.52;101944.34;4976743;27;110986;-66
2023/04/03 02:21:32;;;;;;;;;;;;;;;11.97;45.62;101942.94;4975502;27;128771;-66
2023/04/03 02:23:58;;;;;;;;;;;;;;;11.95;45.56;101953.19;4980299;27;97764;-63
2023/04/03 02:26:25;;;;;;;;;;;;;;;11.94;45.71;101944.22;4974990;27;100644;-63
2023/04/03 02:28:51;;;;;;;;;;;;;;;11.93;45.76;101948.00;4982105;27;98419;-67
2023/04/03 02:31:17;;;;;;;;;;;;;;;11.92;45.54;101948.25;4975483;27;126563;-63
2023/04/03 02:33:43;;;;;;;;;;;;;;;11.90;45.62;101955.75;4978169;27;107541;-63
2023/04/03 02:36:09;;;;;;;;;;;;;;;11.88;45.59;101956.00;4972965;27;127390;-66
2023/04/03 02:38:35;;;;;;;;;;;;;;;11.87;45.66;101959.78;4961357;27;118068;-63
2023/04/03 02:41:08;;;;;;;;;;;;;;;11.86;45.45;101962.69;4973399;27;97816;-66
2023/04/03 02:43:34;;;;;;;;;;;;;;;11.85;45.59;101963.78;4960194;27;99497;-66
2023/04/03 02:46:00;;;;;;;;;;;;;;;11.83;45.53;101960.44;4980493;27;98970;-63
2023/04/03 02:48:26;;;;;;;;;;;;;;;11.81;45.30;101968.78;4978059;27;125830;-63
2023/04/03 02:50:52;;;;;;;;;;;;;;;11.80;45.46;101967.16;4976470;27;98470;-67
2023/04/03 02:53:18;;;;;;;;;;;;;;;11.78;45.75;101961.16;4981024;27;116472;-63
2023/04/03 02:55:44;;;;;;;;;;;;;;;11.78;45.73;101974.66;4961680;27;99934;-63
2023/04/03 02:58:10;;;;;;;;;;;;;;;11.75;45.54;101964.34;4963987;28;124978;-67
2023/04/03 03:00:36;;;;;;;;;;;;;;;11.73;45.61;101978.09;4994559;27;106097;-67
2023/04/03 03:03:02;;;;;;;;;;;;;;;11.72;45.51;101972.94;4977507;27;116211;-62
2023/04/03 03:05:28;;;;;;;;;;;;;;;11.70;45.48;101970.47;4977304;27;123728;-68
2023/04/03 03:07:54;;;;;;;;;;;;;;;11.69;45.60;101970.72;4977318;27;127122;-67
2023/04/03 03:10:20;;;;;;;;;;;;;;;11.67;45.68;101981.75;4979804;27;98087;-66
2023/04/03 03:12:46;;;;;;;;;;;;;;;11.66;45.66;101969.28;4982037;27;107460;-66
2023/04/03 03:15:12;;;;;;;;;;;;;;;11.63;45.61;101975.19;4960024;28;127143;-66
2023/04/03 03:17:38;;;;;;;;;;;;;;;11.64;45.29;101982.22;4974976;27;127393;-66
2023/04/03 03:20:07;;;;;;;;;;;;;;;11.61;45.57;101979.19;4975796;27;105932;-66
2023/04/03 03:22:33;;;;;;;;;;;;;;;11.62;45.57;101980.81;4964719;27;98046;-66
2023/04/03 03:25:00;;;;;;;;;;;;;;;11.60;45.54;101978.38;4981509;27;99160;-63
2023/04/03 03:27:26;;;;;;;;;;;;;;;11.59;45.46;101981.28;4975706;27;99215;-66
2023/04/03 03:29:52;;;;;;;;;;;;;;;11.57;45.51;101986.94;4960466;27;124076;-63
2023/04/03 03:32:18;;;;;;;;;;;;;;;11.56;45.74;101977.19;4975718;27;116120;-66
2023/04/03 03:34:44;;;;;;;;;;;;;;;11.55;45.68;101984.47;4974490;27;127896;-63
2023/04/03 03:37:10;;;;;;;;;;;;;;;11.54;45.55;101982.00;4975273;27;129135;-62
2023/04/03 03:39:35;;;;;;;;;;;;;;;11.52;45.65;101984.13;4976119;27;127895;-63
2023/04/03 03:42:01;;;;;;;;;;;;;;;11.50;45.55;101992.44;4976693;27;117604;-63
2023/04/03 03:44:29;;;;;;;;;;;;;;;11.49;45.78;102001.63;4948002;27;128136;-66
2023/04/03 03:46:55;;;;;;;;;;;;;;;11.46;45.59;101990.47;4959709;27;98342;-66
2023/04/03 03:49:21;;;;;;;;;;;;;;;11.45;45.56;101994.22;4974593;27;97929;-66
2023/04/03 03:51:47;;;;;;;;;;;;;;;11.44;45.58;101989.91;4976777;27;117439;-67
2023/04/03 03:54:13;;;;;;;;;;;;;;;11.43;45.39;101993.63;4975488;27;125868;-67
2023/04/03 03:56:39;;;;;;;;;;;;;;;11.41;45.66;101996.59;4964121;27;127308;-67
2023/04/03 03:59:05;;;;;;;;;;;;;;;11.39;45.62;101998.69;4978344;27;98057;-66
2023/04/03 04:01:31;;;;;;;;;;;;;;;11.39;45.60;101995.16;4980073;27;98120;-66
2023/04/03 04:03:57;;;;;;;;;;;;;;;11.37;45.54;101991.91;4976798;27;106358;-67
2023/04/03 04:06:23;;;;;;;;;;;;;;;11.34;45.60;101992.34;4975088;27;98476;-63
2023/04/03 04:08:49;;;;;;;;;;;;;;;11.34;45.53;101992.34;4975791;27;126305;-64
2023/04/03 04:11:15;;;;;;;;;;;;;;;11.33;45.40;101993.41;4973998;27;99576;-63
2023/04/03 04:13:40;;;;;;;;;;;;;;;11.32;45.49;101992.59;4978850;27;127430;-66
2023/04/03 04:16:07;;;;;;;;;;;;;;;11.31;45.49;101997.16;4974494;27;129032;-67
2023/04/03 04:18:33;;;;;;;;;;;;;;;11.30;45.83;101990.13;4977212;28;100069;-63
2023/04/03 04:20:59;;;;;;;;;;;;;;;11.30;45.64;101994.69;4961468;28;116344;-66
2023/04/03 04:23:25;;;;;;;;;;;;;;;11.28;45.34;101991.44;4961420;27;98221;-66
2023/04/03 04:25:51;;;;;;;;;;;;;;;11.27;45.67;101998.69;4976199;27;127812;-64
2023/04/03 04:28:16;;;;;;;;;;;;;;;11.27;45.61;102000.56;4975115;27;126363;-63
2023/04/03 04:30:42;;;;;;;;;;;;;;;11.25;45.27;101995.41;4977483;27;118195;-63
2023/04/03 04:33:08;;;;;;;;;;;;;;;11.25;45.44;102000.81;4978920;27;98628;-67
2023/04/03 04:35:34;;;;;;;;;;;;;;;11.25;45.64;102003.50;4977083;27;115554;-63
2023/04/03 04:38:01;;;;;;;;;;;;;;;11.24;45.67;102004.56;4967220;27;117826;-63
2023/04/03 04:40:27;;;;;;;;;;;;;;;11.24;45.29;102007.28;4960481;28;98039;-66
2023/04/03 04:42:53;;;;;;;;;;;;;;;11.24;45.26;102004.56;4977780;27;128181;-67
2023/04/03 04:45:19;;;;;;;;;;;;;;;11.23;45.43;102005.59;4974556;27;112629;-67
2023/04/03 04:47:45;;;;;;;;;;;;;;;11.25;45.52;102010.78;4964204;27;97986;-64
2023/04/03 04:50:11;;;;;;;;;;;;;;;11.24;45.53;102014.56;4956284;27;117606;-63
2023/04/03 04:52:37;;;;;;;;;;;;;;;11.24;45.26;102009.97;4956138;27;98759;-67
2023/04/03 04:55:03;;;;;;;;;;;;;;;11.25;45.48;102016.19;4963950;27;105294;-66
2023/04/03 04:57:29;;;;;;;;;;;;;;;11.25;45.61;102021.59;4973776;27;125153;-66
2023/04/03 04:59:55;;;;;;;;;;;;;;;11.26;45.52;102020.53;4977656;27;117297;-63
2023/04/03 05:02:21;;;;;;;;;;;;;;;11.26;45.20;102023.22;4972393;27;125893;-66
2023/04/03 05:04:49;;;;;;;;;;;;;;;11.27;45.66;102024.84;4973359;27;125942;-66
2023/04/03 05:07:15;;;;;;;;;;;;;;;11.28;45.58;102031.94;4973061;27;98255;-66
2023/04/03 05:09:42;;;;;;;;;;;;;;;11.29;45.33;102028.16;4971287;27;116505;-66
2023/04/03 05:12:08;;;;;;;;;;;;;;;11.30;45.14;102036.00;4973380;27;98434;-66
2023/04/03 05:14:33;;;;;;;;;;;;;;;11.33;45.12;102031.22;4972325;27;128164;-66
2023/04/03 05:16:59;;;;;;;;;;;;;;;11.36;45.45;102041.53;4971986;27;118892;-67
2023/04/03 05:19:25;;;;;;;;;;;;;;;11.39;45.29;102032.97;4974027;27;118246;-63
2023/04/03 05:21:51;;;;;;;;;;;;;;;11.41;45.17;102039.78;4969037;27;128717;-63
2023/04/03 05:24:17;;;;;;;;;;;;;;;11.44;45.25;102036.63;4972025;27;103350;-66
2023/04/03 05:26:43;;;;;;;;;;;;;;;11.50;45.13;102037.53;4973841;27;112915;-66
2023/04/03 05:29:09;;;;;;;;;;;;;;;11.53;45.06;102035.19;4956966;27;98209;-63
2023/04/03 05:31:35;;;;;;;;;;;;;;;11.57;45.08;102045.53;4975578;27;98126;-63
2023/04/03 05:34:06;;;;;;;;;;;;;;;11.58;45.23;102037.19;4975073;27;126825;-67
2023/04/03 05:36:32;;;;;;;;;;;;;;;11.61;45.10;102042.13;4974953;27;128024;-64
2023/04/03 05:38:58;;;;;;;;;;;;;;;11.63;45.02;102045.41;4969493;27;116812;-63
2023/04/03 05:41:24;;;;;;;;;;;;;;;11.69;45.11;102043.63;4969994;27;98546;-63
2023/04/03 05:43:50;;;;;;;;;;;;;;;11.72;44.89;102054.81;4974934;27;98736;-66
2023/04/03 05:46:17;;;;;;;;;;;;;;;11.76;45.05;102044.34;4952330;27;122178;-66
2023/04/03 05:48:44;;;;;;;;;;;;;;;11.80;44.96;102048.22;4959953;27;111856;-63
2023/04/03 05:51:18;;;;;;;;;;;;;;;11.84;44.84;102049.41;4966940;27;97999;-67
2023/04/03 05:53:44;;;;;;;;;;;;;;;11.88;45.07;102047.88;4958684;27;98771;-63
2023/04/03 05:56:10;;;;;;;;;;;;;;;11.93;45.02;102050.69;4956789;27;98491;-63
2023/04/03 05:58:36;;;;;;;;;;;;;;;11.98;44.82;102048.06;4972741;27;97890;-68
2023/04/03 06:01:02;;;;;;;;;;;;;;;12.05;44.87;102058.75;4970589;27;128831;-66
2023/04/03 06:03:27;;;;;;;;;;;;;;;12.11;44.81;102051.59;4972655;27;106555;-64
2023/04/03 06:05:53;;;;;;;;;;;;;;;12.18;44.83;102054.97;4973231;27;119352;-63
2023/04/03 06:08:19;;;;;;;;;;;;;;;12.25;44.73;102058.34;4974588;27;118232;-63
2023/04/03 06:10:46;;;;;;;;;;;;;;;12.34;44.62;102059.63;4973614;27;99333;-64
2023/04/03 06:13:12;;;;;;;;;;;;;;;12.43;44.45;102060.06;4973358;27;99681;-66
2023/04/03 06:15:39;;;;;;;;;;;;;;;12.53;44.80;102057.53;4957267;27;98040;-66
2023/04/03 06:18:06;;;;;;;;;;;;;;;12.62;44.50;102064.22;4974851;27;98033;-64
2023/04/03 06:20:32;;;;;;;;;;;;;;;12.72;44.26;102064.38;4955190;28;98438;-66
2023/04/03 06:22:58;;;;;;;;;;;;;;;12.82;44.29;102060.25;4969201;27;126293;-63
2023/04/03 06:25:24;;;;;;;;;;;;;;;12.92;44.20;102061.22;4959783;27;127730;-67
2023/04/03 06:27:50;;;;;;;;;;;;;;;13.01;44.08;102061.66;4975239;27;97764;-66
2023/04/03 06:30:16;;;;;;;;;;;;;;;13.10;44.06;102067.50;4971647;27;127474;-64
2023/04/03 06:32:42;;;;;;;;;;;;;;;13.17;44.36;102060.03;4971565;27;127518;-66
2023/04/03 06:35:09;;;;;;;;;;;;;;;13.22;44.06;102062.81;4974269;27;98233;-66
2023/04/03 06:37:35;;;;;;;;;;;;;;;13.27;44.15;102068.34;4971530;27;98238;-63
2023/04/03 06:40:01;;;;;;;;;;;;;;;13.32;44.16;102068.41;4971162;27;98698;-66
2023/04/03 06:42:27;;;;;;;;;;;;;;;13.42;44.36;102081.28;4974712;27;99092;-66
2023/04/03 06:44:53;;;;;;;;;;;;;;;13.51;43.96;102068.97;4974668;27;126343;-66
2023/04/03 06:47:19;;;;;;;;;;;;;;;13.60;44.38;102072.09;4974869;27;116737;-66
2023/04/03 06:49:45;;;;;;;;;;;;;;;13.68;43.92;102077.09;4979026;27;98734;-64
2023/04/03 06:52:11;;;;;;;;;;;;;;;13.78;44.38;102079.94;4954727;27;128040;-63
2023/04/03 06:54:38;;;;;;;;;;;;;;;13.86;43.94;102081.38;4971227;27;98348;-64
2023/04/03 06:57:04;;;;;;;;;;;;;;;13.90;44.02;102080.63;4962817;28;107994;-64
2023/04/03 06:59:29;;;;;;;;;;;;;;;14.00;44.22;102085.38;4976238;27;99167;-66
2023/04/03 07:01:55;;;;;;;;;;;;;;;14.05;43.92;102087.34;4972729;27;127825;-64
2023/04/03 07:04:21;;;;;;;;;;;;;;;14.15;43.88;102092.91;4974539;27;97865;-66
2023/04/03 07:06:47;;;;;;;;;;;;;;;14.22;44.15;102088.09;4977307;27;116949;-66
2023/04/03 07:09:14;;;;;;;;;;;;;;;14.35;43.92;102092.34;4975616;27;99231;-66
2023/04/03 07:11:40;;;;;;;;;;;;;;;14.46;44.07;102085.94;4976325;27;98406;-66
2023/04/03 07:14:07;;;;;;;;;;;;;;;14.59;43.97;102091.00;4956207;27;98195;-68
2023/04/03 07:16:34;;;;;;;;;;;;;;;14.72;43.62;102098.72;4973899;27;98968;-65
2023/04/03 07:19:00;;;;;;;;;;;;;;;14.84;43.76;102086.91;4977097;27;98849;-67
2023/04/03 07:21:26;;;;;;;;;;;;;;;14.97;43.78;102090.03;4975786;27;99215;-67
2023/04/03 07:23:51;;;;;;;;;;;;;;;15.14;43.65;102083.66;4972257;27;127960;-63
2023/04/03 07:26:17;;;;;;;;;;;;;;;15.18;43.67;102098.34;4956324;27;116989;-67
2023/04/03 07:28:44;;;;;;;;;;;;;;;15.21;43.42;102090.50;4970205;27;124044;-64
2023/04/03 07:31:13;;;;;;;;;;;;;;;15.34;43.56;102093.88;4973320;27;98709;-63
2023/04/03 07:33:39;;;;;;;;;;;;;;;15.60;43.37;102103.00;4975569;27;98023;-64
2023/04/03 07:36:07;;;;;;;;;;;;;;;15.78;43.22;102101.81;4976307;27;97890;-66
2023/04/03 07:38:33;;;;;;;;;;;;;;;15.99;43.09;102108.97;4969569;27;98305;-64
2023/04/03 07:40:59;;;;;;;;;;;;;;;16.06;43.28;102098.69;4968814;27;120578;-67
2023/04/03 07:43:25;;;;;;;;;;;;;;;16.13;43.30;102103.91;4973378;27;98449;-63
2023/04/03 07:45:51;;;;;;;;;;;;;;;16.37;42.99;102091.47;4972476;27;98427;-67
2023/04/03 07:48:24;;;;;;;;;;;;;;;16.71;42.77;102096.47;4971091;27;98680;-66
2023/04/03 07:50:51;;;;;;;;;;;;;;;17.06;42.55;102090.28;4955623;27;126148;-67
2023/04/03 07:53:17;;;;;;;;;;;;;;;17.50;42.16;102097.09;4971291;27;98357;-67
2023/04/03 07:55:43;;;;;;;;;;;;;;;18.01;41.74;102091.53;4971075;27;116277;-66
2023/04/03 07:58:14;;;;;;;;;;;;;;;17.30;42.80;102097.91;4967920;27;105506;-68
2023/04/03 08:00:40;;;;;;;;;;;;;;;18.37;41.65;102093.00;4970342;27;98052;-67
2023/04/03 08:03:06;;;;;;;;;;;;;;;18.20;42.29;102102.66;4971182;27;97978;-67
2023/04/03 08:05:36;;;;;;;;;;;;;;;18.87;41.51;102102.03;4970405;27;98291;-64
2023/04/03 08:08:01;;;;;;;;;;;;;;;19.73;40.76;102102.41;4969002;27;129080;-64
2023/04/03 08:10:29;;;;;;;;;;;;;;;20.55;40.44;102106.91;4965818;27;128994;-64
2023/04/03 08:12:55;;;;;;;;;;;;;;;20.88;40.50;102101.50;4954267;27;98018;-64
2023/04/03 08:15:21;;;;;;;;;;;;;;;20.86;41.11;102109.19;4968698;27;117450;-64
2023/04/03 08:17:47;;;;;;;;;;;;;;;22.18;39.71;102108.81;4971052;27;99000;-64
2023/04/03 08:20:13;;;;;;;;;;;;;;;23.28;39.00;102108.50;4972175;27;126623;-68
2023/04/03 08:22:39;;;;;;;;;;;;;;;24.25;38.90;102105.88;4969680;27;98059;-64
2023/04/03 08:25:05;;;;;;;;;;;;;;;25.15;38.46;102108.88;4951020;27;99560;-69
2023/04/03 08:27:31;;;;;;;;;;;;;;;26.09;38.26;102114.38;4935899;28;99159;-68
2023/04/03 08:29:57;;;;;;;;;;;;;;;27.05;37.63;102113.72;4950077;28;127807;-65
2023/04/03 08:32:23;;;;;;;;;;;;;;;28.15;37.16;102116.69;4951136;28;97941;-66
2023/04/03 08:34:49;;;;;;;;;;;;;;;28.97;36.99;102119.19;4951833;28;99368;-68
2023/04/03 08:37:16;;;;;;;;;;;;;;;29.25;37.81;102123.91;4947014;28;129858;-69
2023/04/03 08:39:43;;;;;;;;;;;;;;;29.22;37.84;102117.09;4951558;28;98027;-66
2023/04/03 08:42:22;;;;;;;;;;;;;;;29.78;37.59;102110.59;4932441;28;98435;-68
2023/04/03 08:45:06;;;;;;;;;;;;;;;28.21;39.84;102120.81;4950353;28;108116;-67
2023/04/03 08:47:39;;;;;;;;;;;;;;;27.27;40.66;102118.88;4940177;28;99240;-65
2023/04/03 08:50:07;;;;;;;;;;;;;;;28.24;39.44;102111.81;4953667;28;98093;-68
2023/04/03 08:52:50;;;;;;;;;;;;;;;29.72;37.90;102125.94;4950743;28;98680;-68
2023/04/03 08:55:31;;;;;;;;;;;;;;;29.32;39.14;102121.34;4948376;28;98387;-66
2023/04/03 08:58:05;;;;;;;;;;;;;;;30.60;37.42;102117.28;4939092;28;116809;-66
2023/04/03 09:00:45;;;;;;;;;;;;;;;28.78;39.95;102110.69;4951753;28;98439;-68
2023/04/03 09:03:13;;;;;;;;;;;;;;;31.87;37.02;102111.72;4953869;28;98811;-68
2023/04/03 09:06:03;;;;;;;;;;;;;;;33.33;36.06;102108.03;4933235;28;98326;-66
2023/04/03 09:08:49;;;;;;;;;;;;;;;32.62;37.61;102113.63;4945899;28;129723;-68
2023/04/03 09:11:41;;;;;;;;;;;;;;;34.13;36.09;102110.28;4965381;28;98787;-65
2023/04/03 09:14:34;;;;;;;;;;;;;;;32.26;38.79;102098.34;4934880;28;97939;-68
2023/04/03 09:17:00;;;;;;;;;;;;;;;35.18;35.74;102107.56;4936573;28;98185;-66
2023/04/03 09:19:36;;;;;;;;;;;;;;;36.22;35.43;102099.88;4936926;28;125427;-67
2023/04/03 09:22:23;;;;;;;;;;;;;;;37.71;34.24;102105.06;4956436;28;122344;-69
2023/04/03 09:25:18;;;;;;;;;;;;;;;37.39;35.90;102108.91;4958652;28;98532;-66
2023/04/03 09:27:44;;;;;;;;;;;;;;;35.86;37.24;102099.16;4944967;28;98597;-68
2023/04/03 09:30:21;;;;;;;;;;;;;;;35.00;38.33;102096.31;4955020;28;97971;-66
2023/04/03 09:32:48;;;;;;;;;;;;;;;33.69;39.89;102092.41;4957425;28;98888;-66
2023/04/03 09:35:20;;;;;;;;;;;;;;;33.93;39.24;102088.19;4953490;28;98921;-66
2023/04/03 09:37:56;;;;;;;;;;;;;;;33.15;39.91;102085.50;4968087;27;102221;-68
2023/04/03 09:40:25;;;;;;;;;;;;;;;31.67;41.26;102085.91;4943759;28;99556;-68
2023/04/03 09:42:52;;;;;;;;;;;;;;;30.63;41.82;102085.94;4956245;28;98580;-67
2023/04/03 09:45:32;;;;;;;;;;;;;;;29.82;42.50;102080.94;4953582;28;98369;-65
2023/04/03 09:48:13;;;;;;;;;;;;;;;32.81;38.51;102079.13;4956107;28;112165;-66
2023/04/03 09:50:50;;;;;;;;;;;;;;;35.22;36.18;102085.16;4956561;28;98764;-66
2023/04/03 09:53:31;;;;;;;;;;;;;;;36.83;35.61;102089.22;4937677;28;99286;-68
2023/04/03 09:55:57;;;;;;;;;;;;;;;36.96;36.26;102088.78;4968581;27;98608;-66
2023/04/03 09:58:40;;;;;;;;;;;;;;;34.84;38.44;102073.44;4954596;28;97638;-66
2023/04/03 10:01:06;;;;;;;;;;;;;;;36.31;36.99;102074.19;4954326;28;98131;-65
2023/04/03 10:03:35;;;;;;;;;;;;;;;35.16;38.13;102079.91;4967681;27;98899;-66
2023/04/03 10:06:01;;;;;;;;;;;;;;;33.71;39.64;102070.44;4950440;28;98588;-67
2023/04/03 10:08:31;;;;;;;;;;;;;;;32.85;39.98;102065.22;4953234;28;98114;-65
2023/04/03 10:11:13;;;;;;;;;;;;;;;32.76;40.32;102073.91;4953109;28;122219;-65
2023/04/03 10:13:56;;;;;;;;;;;;;;;31.43;41.18;102071.19;4957642;28;98736;-67
2023/04/03 10:16:43;;;;;;;;;;;;;;;30.30;41.99;102064.97;4954760;28;98107;-65
2023/04/03 10:19:20;;;;;;;;;;;;;;;29.27;42.68;102072.41;4953718;28;116274;-67
2023/04/03 10:22:00;;;;;;;;;;;;;;;28.55;42.83;102063.25;4955424;28;99243;-66
2023/04/03 10:24:42;;;;;;;;;;;;;;;28.17;42.72;102058.94;4971760;27;98419;-64
2023/04/03 10:27:13;;;;;;;;;;;;;;;28.00;42.36;102061.97;4939364;28;126035;-66
2023/04/03 10:29:59;;;;;;;;;;;;;;;27.34;43.00;102057.44;4955809;28;98006;-66
2023/04/03 10:32:37;;;;;;;;;;;;;;;26.67;43.28;102053.84;4940647;28;118362;-64
2023/04/03 10:35:35;;;;;;;;;;;;;;;26.20;43.46;102060.38;4936317;28;121361;-64
2023/04/03 10:38:15;;;;;;;;;;;;;;;25.83;43.45;102059.31;4953215;28;98347;-64
2023/04/03 10:40:50;;;;;;;;;;;;;;;25.61;43.41;102065.06;4941570;28;98069;-64
2023/04/03 10:43:40;;;;;;;;;;;;;;;25.55;43.21;102061.69;4951927;28;99867;-66
2023/04/03 10:46:29;;;;;;;;;;;;;;;26.09;42.16;102055.56;4955134;28;98826;-66
2023/04/03 10:49:16;;;;;;;;;;;;;;;25.63;42.76;102047.03;4944024;28;98075;-66
2023/04/03 10:51:48;;;;;;;;;;;;;;;25.15;43.17;102050.94;4955024;28;98701;-64
2023/04/03 10:54:23;;;;;;;;;;;;;;;24.64;43.57;102046.25;4936749;28;121386;-64
2023/04/03 10:56:55;;;;;;;;;;;;;;;24.22;43.62;102046.72;4955059;28;121113;-67
2023/04/03 10:59:43;;;;;;;;;;;;;;;24.01;43.71;102048.44;4940891;28;98344;-64
2023/04/03 11:02:29;;;;;;;;;;;;;;;23.88;43.45;102049.38;4953315;28;98504;-66
2023/04/03 11:05:05;;;;;;;;;;;;;;;23.61;43.59;102047.66;4934671;28;98618;-64
2023/04/03 11:07:34;;;;;;;;;;;;;;;23.36;43.59;102054.66;4944223;28;98068;-64
2023/04/03 11:10:06;;;;;;;;;;;;;;;23.15;43.79;102046.97;4938794;28;122889;-64
2023/04/03 11:12:40;;;;;;;;;;;;;;;22.99;43.54;102043.78;4913764;28;103269;-67
2023/04/03 11:15:11;;;;;;;;;;;;;;;22.91;43.61;102040.97;4934874;28;98566;-66
2023/04/03 11:17:46;;;;;;;;;;;;;;;22.80;43.41;102037.63;4917439;28;98186;-67
2023/04/03 11:20:32;;;;;;;;;;;;;;;22.70;43.63;102043.38;4948178;28;99199;-64
2023/04/03 11:23:03;;;;;;;;;;;;;;;22.73;43.09;102043.56;4934178;28;98434;-64
2023/04/03 11:25:30;;;;;;;;;;;;;;;22.81;43.27;102047.50;4935528;28;98804;-66
2023/04/03 11:28:01;;;;;;;;;;;;;;;22.76;43.21;102033.91;4924831;28;98145;-67
2023/04/03 11:30:39;;;;;;;;;;;;;;;22.75;42.86;102037.75;4936379;28;98495;-63
2023/04/03 11:33:37;;;;;;;;;;;;;;;22.66;43.10;102037.69;4932956;28;98644;-63
2023/04/03 11:36:30;;;;;;;;;;;;;;;22.60;42.89;102035.34;4934573;28;98412;-67
2023/04/03 11:38:58;;;;;;;;;;;;;;;22.65;42.73;102041.56;4917194;28;98551;-64
2023/04/03 11:41:32;;;;;;;;;;;;;;;22.62;42.99;102036.69;4918194;28;121909;-63
2023/04/03 11:44:03;;;;;;;;;;;;;;;22.55;42.92;102031.59;4919934;28;117714;-65
2023/04/03 11:46:54;;;;;;;;;;;;;;;22.36;43.01;102033.72;4935256;28;98600;-65
2023/04/03 11:49:53;;;;;;;;;;;;;;;22.12;43.34;102035.88;4933976;28;98776;-64
2023/04/03 11:52:46;;;;;;;;;;;;;;;21.97;43.47;102035.09;4935752;28;98034;-64
2023/04/03 11:55:21;;;;;;;;;;;;;;;21.93;43.17;102044.22;4934273;28;98067;-66
2023/04/03 11:58:02;;;;;;;;;;;;;;;21.98;43.20;102044.13;4934384;28;98556;-64
2023/04/03 12:00:50;;;;;;;;;;;;;;;22.10;42.68;102036.19;4935516;28;98264;-63
2023/04/03 12:03:26;;;;;;;;;;;;;;;22.39;42.47;102027.59;4934841;28;98315;-66
2023/04/03 12:06:07;;;;;;;;;;;;;;;22.45;42.47;102033.81;4935437;28;98613;-66
2023/04/03 12:08:32;;;;;;;;;;;;;;;22.41;42.50;102030.88;4936837;28;98018;-64
2023/04/03 12:13:37;;;;;;;;;;;;;;;21.89;43.00;102034.97;4931966;28;98201;-63
2023/04/03 12:16:04;;;;;;;;;;;;;;;21.67;43.06;102042.00;4917973;28;98351;-63
2023/04/03 12:18:43;;;;;;;;;;;;;;;21.51;43.46;102043.44;4933814;28;126694;-63
2023/04/03 12:21:13;;;;;;;;;;;;;;;21.37;43.38;102042.59;4934581;28;98412;-63
2023/04/03 12:24:08;;;;;;;;;;;;;;;21.29;43.34;102041.31;4932293;28;97797;-63
2023/04/03 12:26:58;;;;;;;;;;;;;;;21.28;43.14;102035.03;4934354;28;99417;-63
2023/04/03 12:29:33;;;;;;;;;;;;;;;21.36;42.93;102028.06;4929524;28;98952;-63
2023/04/03 12:32:22;;;;;;;;;;;;;;;21.53;42.80;102033.75;4936462;28;99003;-63
2023/04/03 12:35:00;;;;;;;;;;;;;;;22.25;41.75;102024.09;4928044;28;127870;-67
2023/04/03 12:37:43;;;;;;;;;;;;;;;22.05;42.30;102036.31;4929921;28;98025;-65
2023/04/03 12:40:31;;;;;;;;;;;;;;;22.01;42.46;102027.06;4933518;28;126011;-66
2023/04/03 12:43:30;;;;;;;;;;;;;;;21.91;42.46;102019.84;4934402;28;99015;-63
2023/04/03 12:46:09;;;;;;;;;;;;;;;21.64;42.78;102028.09;4935064;28;98895;-63
2023/04/03 12:48:45;;;;;;;;;;;;;;;21.35;43.07;102026.44;4931549;28;98308;-65
2023/04/03 12:51:18;;;;;;;;;;;;;;;21.18;43.11;102031.66;4933799;28;98445;-63